Flight Track Log - Related Links

Times and Time Zones

All times are in EDT time to prevent confusion due to time zone crossing. See the CPT8773 flight status page for this flight to view local times or setup timezone preferences in your user account.

Time Position Orientation Groundspeed Altitude Reporting Facility
EDT Latitude Longitude Course Direction KTS MPH feet Rate Location/Type
Fri 09:03:10 AM 42.9739 -106.5328 36° Northeast 127 146 7,400  Level Denver Center
Fri 09:04:11 AM 43.0103 -106.5478 343° North 124 143 8,100 689 Climbing Denver Center
Fri 09:05:12 AM 43.0422 -106.5589 346° North 123 142 8,800 738 Climbing Denver Center
Fri 09:06:13 AM 43.0736 -106.5664 350° North 121 139 9,600 689 Climbing Denver Center
Fri 09:07:00 AM 42.9642 -106.3867 45° Northeast  Level FlightAware Approximate
Fri 09:07:14 AM 43.1042 -106.5775 345° North 110 127 10,200  Level Denver Center
Fri 09:08:00 AM 42.9968 -106.3532 36° Northeast  Level FlightAware Approximate
Fri 09:08:15 AM 43.1358 -106.5853 350° North 116 133 10,700  Level Denver Center
Fri 09:09:16 AM 43.1686 -106.5928 351° North 123 142 11,100 293 Climbing Denver Center
Fri 09:10:18 AM 43.2139 -106.6058 348° North 144 166 11,300 244 Climbing Denver Center
Fri 09:11:19 AM 43.2547 -106.6186 347° North 154 177 11,600 295 Climbing Denver Center
Fri 09:12:20 AM 43.2906 -106.6497 328° Northwest 140 161 11,900 197 Climbing Denver Center
Fri 09:13:21 AM 43.3081 -106.6919 300° West 132 152 12,000 49 Climbing Denver Center
Fri 09:14:22 AM 43.3314 -106.7311 309° West 138 159 12,000  Level Denver Center
Fri 09:15:23 AM 43.3578 -106.7808 306° West 144 166 12,000  Level Denver Center
Fri 09:16:24 AM 43.3811 -106.8256 306° West 150 173 12,000  Level Denver Center
Fri 09:17:25 AM 43.4089 -106.8764 307° West 152 175 12,000  Level Denver Center
Fri 09:18:26 AM 43.4317 -106.9217 305° West 151 174 12,000  Level Denver Center
Fri 09:19:27 AM 43.4567 -106.9686 306° West 157 181 12,000  Level Denver Center
Fri 09:20:28 AM 43.4861 -107.0233 307° West 160 184 12,000  Level Denver Center
Fri 09:21:29 AM 43.5114 -107.0708 306° West 161 185 12,000  Level Denver Center
Fri 09:22:31 AM 43.5347 -107.1183 304° West 157 181 12,000  Level Denver Center
Fri 09:23:30 AM 43.5642 -107.1742 306° West 158 182 12,000  Level Salt Lake Center
Fri 09:24:31 AM 43.5883 -107.2214 305° West 157 181 12,000  Level Salt Lake Center
Fri 09:25:32 AM 43.6133 -107.2692 306° West 159 183 12,000  Level Salt Lake Center
Fri 09:26:33 AM 43.6406 -107.3172 308° West 151 174 12,000  Level Salt Lake Center
Fri 09:27:34 AM 43.6611 -107.3592 304° West 144 166 12,000  Level Salt Lake Center
Fri 09:28:35 AM 43.6833 -107.3997 307° West 140 161 12,000  Level Salt Lake Center
Fri 09:29:36 AM 43.7092 -107.4503 305° West 141 162 12,000  Level Salt Lake Center
Fri 09:30:37 AM 43.7319 -107.4919 307° West 143 165 12,000  Level Salt Lake Center
Fri 09:31:38 AM 43.7553 -107.5339 308° West 143 165 12,000  Level Salt Lake Center
Fri 09:32:39 AM 43.7803 -107.5839 305° West 143 165 12,000  Level Salt Lake Center
Fri 09:33:40 AM 43.8031 -107.6258 307° West 142 163 12,000  Level Salt Lake Center
Fri 09:34:41 AM 43.8247 -107.6683 305° West 141 162 12,000  Level Salt Lake Center
Fri 09:35:42 AM 43.8497 -107.7164 306° West 140 161 12,000  Level Salt Lake Center
Fri 09:36:44 AM 43.8728 -107.7578 308° West 140 161 12,000  Level Salt Lake Center
Fri 09:37:45 AM 43.8992 -107.8069 307° West 141 162 12,000  Level Salt Lake Center
Fri 09:38:46 AM 43.9200 -107.8492 304° West 140 161 12,000  Level Salt Lake Center
Fri 09:39:47 AM 43.9425 -107.8928 306° West 142 163 12,000  Level Salt Lake Center
Fri 09:40:48 AM 43.9675 -107.9428 305° West 142 163 12,000  Level Salt Lake Center
Fri 09:41:49 AM 43.9900 -107.9844 307° West 141 162 12,000  Level Salt Lake Center
Fri 09:42:50 AM 44.0114 -108.0267 305° West 140 161 12,000  Level Salt Lake Center
Fri 09:43:51 AM 44.0375 -108.0761 306° West 141 162 12,000  Level Salt Lake Center
Fri 09:44:53 AM 44.0606 -108.1181 307° West 142 163 12,000  Level Salt Lake Center
Fri 09:45:54 AM 44.0819 -108.1608 305° West 141 162 12,000  Level Salt Lake Center
Fri 09:46:55 AM 44.1072 -108.2122 304° West 142 163 12,000  Level Salt Lake Center
Fri 09:47:56 AM 44.1306 -108.2547 307° West 143 165 12,000  Level Salt Lake Center
Fri 09:48:58 AM 44.1572 -108.3072 305° West 146 168 12,000  Level Salt Lake Center
Fri 09:49:59 AM 44.1800 -108.3525 305° West 148 170 12,000  Level Salt Lake Center
Fri 09:51:00 AM 44.2036 -108.3981 306° West 150 173 12,000 -49 Level Salt Lake Center
Fri 09:52:02 AM 44.2297 -108.4506 305° West 149 171 11,900 -49 Descending Salt Lake Center
Fri 09:53:03 AM 44.2528 -108.4958 305° West 148 170 11,900  Level Salt Lake Center
Fri 09:54:04 AM 44.2797 -108.5483 306° West 149 171 11,900 -49 Level Salt Lake Center
Fri 09:55:06 AM 44.3033 -108.5956 305° West 151 174 11,800 -293 Descending Salt Lake Center
Fri 09:56:07 AM 44.3303 -108.6456 307° West 158 182 11,300 -492 Descending Salt Lake Center

Login

Don't have an account? Register now (free) for customized features, flight alerts, and more!